createdAt,value
2018-03-16T09:25:44.271Z,18.00
2018-03-16T09:28:22.644Z,17.30
2018-03-16T09:30:57.496Z,16.47
2018-03-16T09:33:31.472Z,17.63
2018-03-16T09:36:05.335Z,16.90
2018-03-16T09:38:39.526Z,17.27
2018-03-16T09:41:13.545Z,17.93
2018-03-16T09:43:47.554Z,17.63
2018-03-16T09:46:22.290Z,18.10
2018-03-16T09:48:56.303Z,17.17
2018-03-16T09:51:31.418Z,17.43
2018-03-16T09:54:05.328Z,16.93
2018-03-16T09:56:39.212Z,18.10
2018-03-16T09:59:13.360Z,18.07
2018-03-16T10:01:47.262Z,18.17
2018-03-16T10:04:21.360Z,18.97
2018-03-16T10:06:56.625Z,18.13
2018-03-16T10:09:31.967Z,20.13
2018-03-16T10:12:06.722Z,19.53
2018-03-16T10:14:42.243Z,19.53
2018-03-16T10:17:17.854Z,18.73
2018-03-16T10:19:52.748Z,18.77
2018-03-16T10:22:27.307Z,19.37
2018-03-16T10:25:02.075Z,19.50
2018-03-16T10:27:36.775Z,19.73
2018-03-16T10:30:11.428Z,19.63
2018-03-16T10:32:45.940Z,19.03
2018-03-16T10:35:20.475Z,19.70
2018-03-16T10:37:55.204Z,19.17
2018-03-16T10:40:29.905Z,19.80
2018-03-16T10:43:04.445Z,18.73
2018-03-16T10:45:39.080Z,20.30
2018-03-16T10:48:14.465Z,20.33
2018-03-16T10:50:49.242Z,19.60
2018-03-16T10:53:23.913Z,21.00
2018-03-16T10:55:58.649Z,20.37
2018-03-16T10:58:33.309Z,20.70
2018-03-16T11:01:13.491Z,20.77
2018-03-16T11:03:51.001Z,20.37
2018-03-16T11:06:31.165Z,21.13
2018-03-16T11:09:07.028Z,21.50
2018-03-16T11:11:41.513Z,21.07
2018-03-16T11:14:16.176Z,21.43
2018-03-16T11:16:50.662Z,20.10
2018-03-16T11:19:25.324Z,21.67
2018-03-16T11:22:00.411Z,20.97
2018-03-16T11:24:35.878Z,21.20
2018-03-16T11:27:10.594Z,20.77
2018-03-16T11:29:45.124Z,20.67
2018-03-16T11:32:20.050Z,20.87
2018-03-16T11:34:55.501Z,20.00
2018-03-16T11:37:30.563Z,21.30
2018-03-16T11:40:05.322Z,20.47
2018-03-16T11:42:40.319Z,20.87
2018-03-16T11:45:15.064Z,20.23
2018-03-16T11:47:49.858Z,21.13
2018-03-16T11:50:24.563Z,21.67
2018-03-16T11:52:59.236Z,21.00
2018-03-16T11:55:33.825Z,20.33
2018-03-16T11:58:08.562Z,19.30
2018-03-16T12:00:43.128Z,19.50
2018-03-16T12:03:18.826Z,20.17
2018-03-16T12:05:53.400Z,20.63
2018-03-16T12:08:27.854Z,19.07
2018-03-16T12:11:03.152Z,19.80
2018-03-16T12:13:38.466Z,18.77
2018-03-16T12:16:13.683Z,18.23
2018-03-16T12:18:48.305Z,18.67
2018-03-16T12:21:23.439Z,17.57
2018-03-16T12:23:57.869Z,19.00
2018-03-16T12:26:32.309Z,14.57
2018-03-16T12:29:07.514Z,15.07
2018-03-16T12:31:42.756Z,16.47
2018-03-16T12:34:18.310Z,16.03
2018-03-16T12:36:52.901Z,15.80
2018-03-16T12:39:27.658Z,16.70
2018-03-16T12:42:02.482Z,15.93
2018-03-16T12:44:37.301Z,15.33
2018-03-16T12:47:11.772Z,16.27
2018-03-16T12:49:47.005Z,15.77
2018-03-16T12:52:21.468Z,14.73
2018-03-16T12:54:56.689Z,14.47
2018-03-16T12:57:31.401Z,16.40
2018-03-16T13:00:06.018Z,14.80
2018-03-16T13:02:40.552Z,15.20
2018-03-16T13:05:15.194Z,14.53
2018-03-16T13:07:50.409Z,13.93
2018-03-16T13:10:24.983Z,14.37
2018-03-16T13:12:59.888Z,15.00
2018-03-16T13:15:34.544Z,14.67
2018-03-16T13:18:09.219Z,13.73
2018-03-16T13:20:43.844Z,13.97
2018-03-16T13:23:18.463Z,13.43
2018-03-16T13:25:53.132Z,12.23
2018-03-16T13:28:27.742Z,14.10
2018-03-16T13:31:03.988Z,12.90
2018-03-16T13:33:41.425Z,13.07
2018-03-16T13:36:15.891Z,12.73
2018-03-16T13:38:50.682Z,12.63
2018-03-16T13:41:25.293Z,11.70
2018-03-16T13:43:59.733Z,12.70
2018-03-16T13:46:34.258Z,11.77
2018-03-16T13:49:09.004Z,11.70
2018-03-16T13:51:44.006Z,11.30
2018-03-16T13:54:18.690Z,11.20
2018-03-16T13:56:53.343Z,11.17
2018-03-16T13:59:28.226Z,10.83
2018-03-16T14:02:03.079Z,11.07
2018-03-16T14:04:37.668Z,10.80
2018-03-16T14:07:12.256Z,11.10
2018-03-16T14:09:47.034Z,11.13
2018-03-16T14:12:21.608Z,11.00
2018-03-16T14:14:56.236Z,10.33
2018-03-16T14:17:30.434Z,12.57
2018-03-16T14:20:04.333Z,10.23
2018-03-16T14:22:38.186Z,11.17
2018-03-16T14:25:12.250Z,10.55
2018-03-16T14:27:46.277Z,10.67
2018-03-16T14:30:20.223Z,9.33
2018-03-16T14:32:54.873Z,9.10
2018-03-16T14:35:28.709Z,9.93
2018-03-16T14:38:02.775Z,8.40
2018-03-16T14:40:36.618Z,9.77
2018-03-16T14:43:11.474Z,9.43
2018-03-16T14:45:45.414Z,9.30
2018-03-16T14:48:19.271Z,8.83
2018-03-16T14:50:53.246Z,8.23
2018-03-16T14:53:27.179Z,8.13
2018-03-16T14:56:01.053Z,8.43
2018-03-16T14:58:35.014Z,8.33
2018-03-16T15:01:09.102Z,8.60
2018-03-16T15:03:43.804Z,8.57
2018-03-16T15:06:17.765Z,8.70
2018-03-16T15:08:51.721Z,9.33
2018-03-16T15:11:25.683Z,8.87
2018-03-16T15:13:59.386Z,8.73
2018-03-16T15:16:33.458Z,8.80
2018-03-16T15:19:07.408Z,8.97
2018-03-16T15:21:41.501Z,7.93
2018-03-16T15:24:16.214Z,8.47
2018-03-16T15:26:50.151Z,8.93
2018-03-16T15:29:24.170Z,8.03
2018-03-16T15:31:58.182Z,7.97
2018-03-16T15:34:32.799Z,7.73
2018-03-16T15:37:06.819Z,8.53
2018-03-16T15:39:40.931Z,8.60
